createdAt,value
2022-11-21T00:01:52.592Z,5.42
2022-11-21T00:04:20.977Z,5.44
2022-11-21T00:06:49.105Z,5.42
2022-11-21T00:09:27.302Z,5.38
2022-11-21T00:11:57.414Z,5.38
2022-11-21T00:14:26.802Z,5.39
2022-11-21T00:16:57.528Z,5.39
2022-11-21T00:19:25.936Z,5.41
2022-11-21T00:21:57.273Z,5.42
2022-11-21T00:24:27.279Z,5.45
2022-11-21T00:26:59.838Z,5.43
2022-11-21T00:29:42.629Z,5.41
2022-11-21T00:32:11.029Z,5.41
2022-11-21T00:34:39.365Z,5.41
2022-11-21T00:37:11.247Z,5.42
2022-11-21T00:39:43.516Z,5.45
2022-11-21T00:42:11.701Z,5.52
2022-11-21T00:44:40.441Z,5.55
2022-11-21T00:47:11.311Z,5.56
2022-11-21T00:49:41.940Z,5.62
2022-11-21T00:52:11.397Z,5.59
2022-11-21T00:54:39.691Z,5.53
2022-11-21T00:57:09.664Z,5.51
2022-11-21T00:59:40.025Z,5.65
2022-11-21T01:02:08.454Z,5.61
2022-11-21T01:04:36.954Z,5.68
2022-11-21T01:07:06.344Z,5.73
2022-11-21T01:09:34.487Z,5.74
2022-11-21T01:12:03.245Z,5.75
2022-11-21T01:14:35.693Z,5.65
2022-11-21T01:17:04.122Z,5.81
2022-11-21T01:19:32.702Z,5.77
2022-11-21T01:22:01.128Z,5.71
2022-11-21T01:24:29.604Z,5.65
2022-11-21T01:26:57.816Z,5.73
2022-11-21T01:29:29.957Z,5.84
2022-11-21T01:32:02.347Z,5.67
2022-11-21T01:34:35.294Z,5.50
2022-11-21T01:37:04.757Z,5.50
2022-11-21T01:39:33.015Z,5.46
2022-11-21T01:42:02.010Z,5.52
2022-11-21T01:44:49.170Z,5.57
2022-11-21T01:47:19.503Z,5.39
2022-11-21T01:49:49.489Z,5.40
2022-11-21T01:52:24.958Z,5.33
2022-11-21T01:54:56.207Z,5.27
2022-11-21T01:57:28.626Z,5.24
2022-11-21T02:00:01.289Z,5.05
2022-11-21T02:02:37.744Z,4.97
2022-11-21T02:05:08.890Z,4.96
2022-11-21T02:07:45.567Z,4.84
2022-11-21T02:10:15.372Z,4.77
2022-11-21T02:12:46.927Z,4.69
2022-11-21T02:15:16.574Z,4.56
2022-11-21T02:17:46.156Z,4.46
2022-11-21T02:20:19.197Z,4.37
2022-11-21T02:23:02.093Z,4.27
2022-11-21T02:25:35.264Z,4.21
2022-11-21T02:28:07.140Z,4.20
2022-11-21T02:30:40.769Z,4.22
2022-11-21T02:33:10.376Z,4.22
2022-11-21T02:35:39.031Z,4.25
2022-11-21T02:38:15.696Z,4.34
2022-11-21T02:40:53.568Z,4.37
2022-11-21T02:43:27.242Z,4.44
2022-11-21T02:45:56.503Z,4.46
2022-11-21T02:48:25.194Z,4.56
2022-11-21T02:50:55.821Z,4.53
2022-11-21T02:53:24.548Z,4.51
2022-11-21T02:55:54.171Z,4.48
2022-11-21T02:58:22.688Z,4.46
2022-11-21T03:00:52.084Z,4.45
2022-11-21T03:03:22.044Z,4.39
2022-11-21T03:05:50.863Z,4.35
2022-11-21T03:08:19.634Z,4.38
2022-11-21T03:10:48.302Z,4.39
2022-11-21T03:13:20.477Z,4.39
2022-11-21T03:15:50.939Z,4.30
2022-11-21T03:18:21.749Z,4.30
2022-11-21T03:20:50.371Z,4.37
2022-11-21T03:23:21.983Z,4.42
2022-11-21T03:25:52.326Z,4.48
2022-11-21T03:28:22.111Z,4.62
2022-11-21T03:30:50.548Z,4.66
2022-11-21T03:33:18.583Z,4.67
2022-11-21T03:35:49.386Z,4.60
2022-11-21T03:38:18.408Z,4.57
2022-11-21T03:40:48.015Z,4.56
2022-11-21T03:43:17.355Z,4.54
2022-11-21T03:45:49.867Z,4.49
2022-11-21T03:48:19.576Z,4.50
2022-11-21T03:50:47.793Z,4.58
2022-11-21T03:53:16.144Z,4.60
2022-11-21T03:55:44.924Z,4.61
2022-11-21T03:58:13.509Z,4.66
2022-11-21T04:00:44.256Z,4.70
2022-11-21T04:03:15.254Z,4.66
2022-11-21T04:05:45.509Z,4.59
2022-11-21T04:08:17.873Z,4.51
2022-11-21T04:10:48.299Z,4.44
2022-11-21T04:13:17.318Z,4.36
2022-11-21T04:15:46.647Z,4.34
2022-11-21T04:18:16.558Z,4.32
2022-11-21T04:20:45.976Z,4.31
2022-11-21T04:23:15.038Z,4.31
2022-11-21T04:25:43.561Z,4.27
2022-11-21T04:28:14.475Z,4.26
2022-11-21T04:30:42.570Z,4.22
2022-11-21T04:33:11.813Z,4.23
2022-11-21T04:35:45.830Z,4.19
2022-11-21T04:38:15.580Z,4.18
2022-11-21T04:40:45.521Z,4.22
2022-11-21T04:43:21.727Z,4.20
2022-11-21T04:45:50.076Z,4.19
2022-11-21T04:48:20.407Z,4.19
2022-11-21T04:50:50.705Z,4.25
2022-11-21T04:53:21.520Z,4.29
2022-11-21T04:55:50.749Z,4.35
2022-11-21T04:58:19.169Z,4.40
2022-11-21T05:00:48.189Z,4.42
2022-11-21T05:03:16.947Z,4.47
2022-11-21T05:05:45.386Z,4.48
2022-11-21T05:08:15.545Z,4.50
2022-11-21T05:11:02.518Z,4.55
2022-11-21T05:13:31.163Z,4.58
2022-11-21T05:15:59.547Z,4.60
2022-11-21T05:18:28.017Z,4.60
2022-11-21T05:20:56.449Z,4.66
2022-11-21T05:23:29.738Z,4.66
2022-11-21T05:26:00.900Z,4.68
2022-11-21T05:28:29.155Z,4.68
2022-11-21T05:30:58.391Z,4.69
2022-11-21T05:33:26.698Z,4.68
2022-11-21T05:35:55.105Z,4.70
2022-11-21T05:38:26.949Z,4.68
2022-11-21T05:40:57.979Z,4.72
2022-11-21T05:43:44.039Z,4.76
2022-11-21T05:46:15.466Z,4.79
2022-11-21T05:48:44.123Z,4.80
2022-11-21T05:51:13.301Z,4.87
2022-11-21T05:53:42.008Z,4.92
2022-11-21T05:56:13.214Z,5.02
2022-11-21T05:58:42.278Z,5.06
2022-11-21T06:01:14.500Z,5.12
2022-11-21T06:03:43.611Z,5.11
2022-11-21T06:06:14.249Z,5.12
2022-11-21T06:08:45.956Z,5.24
2022-11-21T06:11:17.149Z,5.23
2022-11-21T06:13:45.547Z,5.22
2022-11-21T06:16:17.997Z,5.26
2022-11-21T06:18:51.686Z,5.25
2022-11-21T06:21:27.581Z,5.24
2022-11-21T06:23:58.672Z,5.25
2022-11-21T06:26:30.126Z,5.27
2022-11-21T06:29:03.400Z,5.28
2022-11-21T06:31:31.856Z,5.29
2022-11-21T06:34:01.737Z,5.30
2022-11-21T06:36:40.536Z,5.32
2022-11-21T06:39:09.101Z,5.37
2022-11-21T06:41:41.576Z,5.39
2022-11-21T06:44:10.154Z,5.39
2022-11-21T06:46:39.250Z,5.41
2022-11-21T06:49:07.625Z,5.37
2022-11-21T06:51:35.989Z,5.32
2022-11-21T06:54:05.997Z,5.32
2022-11-21T06:56:37.490Z,5.23
2022-11-21T06:59:09.809Z,5.17
2022-11-21T07:01:38.673Z,5.12
2022-11-21T07:04:07.598Z,5.08
2022-11-21T07:06:36.143Z,5.06
2022-11-21T07:09:32.281Z,5.01
2022-11-21T07:12:18.818Z,4.96
2022-11-21T07:14:50.470Z,4.95
2022-11-21T07:17:19.185Z,4.96
2022-11-21T07:19:48.126Z,4.93
2022-11-21T07:22:18.020Z,4.91
2022-11-21T07:24:46.912Z,4.84
2022-11-21T07:27:15.984Z,4.81
2022-11-21T07:29:44.182Z,4.71
2022-11-21T07:32:17.049Z,4.69
2022-11-21T07:34:45.437Z,4.67
2022-11-21T07:37:14.086Z,4.63
2022-11-21T07:39:43.377Z,4.65
2022-11-21T07:42:11.846Z,4.67
2022-11-21T07:44:40.661Z,4.69
2022-11-21T07:47:09.503Z,4.73
2022-11-21T07:49:42.122Z,4.90
2022-11-21T07:52:11.438Z,5.04
2022-11-21T07:54:39.560Z,5.19
2022-11-21T07:57:07.721Z,5.38
2022-11-21T07:59:35.834Z,5.45
2022-11-21T08:02:04.372Z,5.58
2022-11-21T08:04:32.801Z,5.65
2022-11-21T08:07:03.225Z,5.63
2022-11-21T08:09:35.961Z,5.68
2022-11-21T08:12:07.047Z,5.72
2022-11-21T08:14:35.828Z,5.94
2022-11-21T08:17:04.687Z,6.03
2022-11-21T08:19:34.987Z,6.02
2022-11-21T08:22:05.653Z,6.01
2022-11-21T08:24:35.615Z,5.99
2022-11-21T08:27:03.701Z,6.04
2022-11-21T08:29:34.304Z,5.88
2022-11-21T08:32:05.908Z,5.86
2022-11-21T08:34:34.669Z,5.87
2022-11-21T08:37:03.556Z,5.82
2022-11-21T08:39:34.359Z,5.89
2022-11-21T08:42:04.031Z,5.89
2022-11-21T08:44:34.597Z,6.05
2022-11-21T08:47:03.650Z,6.14
2022-11-21T08:49:36.014Z,6.26
2022-11-21T08:52:04.769Z,6.45
2022-11-21T08:54:36.451Z,6.55
2022-11-21T08:57:05.191Z,6.60
2022-11-21T08:59:33.344Z,6.73
2022-11-21T09:02:03.657Z,6.86
2022-11-21T09:04:35.081Z,6.79
2022-11-21T09:07:04.224Z,6.73
2022-11-21T09:09:32.667Z,6.74
2022-11-21T09:12:03.664Z,6.69
2022-11-21T09:14:50.404Z,6.67
2022-11-21T09:17:36.939Z,6.74
2022-11-21T09:20:06.450Z,6.98
2022-11-21T09:22:36.499Z,7.08
2022-11-21T09:25:08.133Z,7.07
2022-11-21T09:27:37.652Z,7.20
2022-11-21T09:30:06.864Z,7.28
2022-11-21T09:32:42.493Z,7.47
2022-11-21T09:35:12.129Z,7.56
2022-11-21T09:37:40.883Z,7.97
2022-11-21T09:40:16.811Z,7.97
2022-11-21T09:43:07.354Z,8.08
2022-11-21T09:45:43.573Z,8.30
2022-11-21T09:48:19.124Z,8.07
2022-11-21T09:50:53.995Z,8.21
2022-11-21T09:53:28.363Z,7.89
2022-11-21T09:56:00.208Z,7.57
2022-11-21T09:58:34.379Z,7.36
2022-11-21T10:01:03.111Z,7.47
2022-11-21T10:03:35.785Z,7.48
2022-11-21T10:06:18.283Z,7.64
2022-11-21T10:08:58.657Z,7.71
2022-11-21T10:12:00.292Z,7.69
2022-11-21T10:14:46.475Z,7.82
2022-11-21T10:17:23.745Z,7.91
2022-11-21T10:20:10.024Z,7.97
2022-11-21T10:23:21.592Z,7.88
2022-11-21T10:25:56.144Z,8.37
2022-11-21T10:28:30.279Z,8.59
2022-11-21T10:31:02.708Z,8.86
2022-11-21T10:36:31.606Z,8.67
2022-11-21T10:39:06.954Z,8.44
2022-11-21T10:41:44.248Z,8.41
2022-11-21T10:44:41.698Z,8.29
2022-11-21T10:47:27.460Z,7.92
2022-11-21T10:50:05.375Z,7.86
2022-11-21T10:52:36.873Z,7.77
2022-11-21T10:55:12.822Z,7.71
2022-11-21T10:57:46.629Z,7.57
2022-11-21T11:00:20.655Z,7.67
2022-11-21T11:03:07.823Z,7.75
2022-11-21T11:05:37.832Z,7.88
2022-11-21T11:08:10.528Z,7.86
2022-11-21T11:10:42.998Z,7.77
2022-11-21T11:13:51.369Z,7.81
2022-11-21T11:16:24.011Z,7.88
2022-11-21T11:18:58.390Z,8.01
2022-11-21T11:21:28.468Z,8.18
2022-11-21T11:24:23.410Z,8.10
2022-11-21T11:26:53.882Z,8.09
2022-11-21T11:29:28.120Z,8.15
2022-11-21T11:32:04.011Z,8.06
2022-11-21T11:34:43.004Z,8.26
2022-11-21T11:37:15.150Z,8.24
2022-11-21T11:39:56.938Z,8.56
2022-11-21T11:43:11.851Z,8.95
2022-11-21T11:46:17.061Z,9.20
2022-11-21T11:49:11.304Z,9.15
2022-11-21T11:51:41.930Z,9.06
2022-11-21T11:54:17.582Z,9.04
2022-11-21T11:56:47.750Z,9.07
2022-11-21T11:59:22.745Z,8.90
2022-11-21T12:01:57.605Z,8.80
2022-11-21T12:04:34.341Z,8.77
2022-11-21T12:10:08.733Z,8.58
2022-11-21T12:12:43.039Z,8.61
2022-11-21T12:15:33.660Z,8.58
2022-11-21T12:18:12.751Z,8.62
2022-11-21T12:20:53.547Z,8.59
2022-11-21T12:23:31.907Z,8.61
2022-11-21T12:26:14.150Z,8.67
2022-11-21T12:28:56.546Z,8.65
2022-11-21T12:31:32.584Z,8.85
2022-11-21T12:34:13.962Z,8.97
2022-11-21T12:36:47.324Z,9.09
2022-11-21T12:39:54.009Z,9.28
2022-11-21T12:42:52.217Z,9.29
2022-11-21T12:45:30.448Z,9.39
2022-11-21T12:48:56.722Z,9.36
2022-11-21T12:51:58.318Z,9.44
2022-11-21T12:54:49.578Z,9.64
2022-11-21T12:57:27.336Z,9.50
2022-11-21T13:00:03.704Z,9.07
2022-11-21T13:02:45.976Z,9.18
2022-11-21T13:05:21.243Z,9.23
2022-11-21T13:07:52.742Z,9.24
2022-11-21T13:10:24.209Z,9.50
2022-11-21T13:13:03.122Z,9.41
2022-11-21T13:15:41.572Z,9.20
2022-11-21T13:18:22.288Z,8.98
2022-11-21T13:20:52.875Z,8.73
2022-11-21T13:23:38.555Z,8.60
2022-11-21T13:26:44.888Z,8.51
2022-11-21T13:29:16.292Z,8.56
2022-11-21T13:31:46.076Z,8.63
2022-11-21T13:34:41.024Z,8.70
2022-11-21T13:37:09.234Z,8.70
2022-11-21T13:39:42.150Z,8.85
2022-11-21T13:42:30.548Z,8.85
2022-11-21T13:45:22.503Z,8.74
2022-11-21T13:48:09.819Z,8.82
2022-11-21T13:51:19.654Z,8.81
2022-11-21T13:54:20.154Z,8.74
2022-11-21T13:57:05.794Z,8.87
2022-11-21T13:59:54.555Z,9.00
2022-11-21T14:03:10.295Z,9.02
2022-11-21T14:06:00.497Z,8.97
2022-11-21T14:08:35.657Z,8.98
2022-11-21T14:11:24.356Z,9.06
2022-11-21T14:13:53.324Z,9.15
2022-11-21T14:16:31.887Z,9.17
2022-11-21T14:19:03.634Z,9.30
2022-11-21T14:21:34.419Z,9.37
2022-11-21T14:24:14.580Z,9.19
2022-11-21T14:26:51.905Z,8.91
2022-11-21T14:29:22.750Z,8.72
2022-11-21T14:31:51.502Z,8.47
2022-11-21T14:34:31.732Z,8.21
2022-11-21T14:37:02.432Z,8.03
2022-11-21T14:39:40.773Z,7.85
2022-11-21T14:42:15.606Z,7.71
2022-11-21T14:44:44.606Z,7.63
2022-11-21T14:47:25.336Z,7.46
2022-11-21T14:50:02.263Z,7.40
2022-11-21T14:52:38.393Z,7.25
2022-11-21T14:55:30.256Z,7.20
2022-11-21T14:58:01.387Z,7.10
2022-11-21T15:03:20.702Z,6.98
2022-11-21T15:06:04.013Z,6.92
2022-11-21T15:11:30.411Z,6.79
2022-11-21T15:14:20.042Z,6.69
2022-11-21T15:16:50.854Z,6.57
2022-11-21T15:19:22.811Z,6.45
2022-11-21T15:21:55.233Z,6.41
2022-11-21T15:24:40.152Z,6.36
2022-11-21T15:28:02.679Z,6.23
2022-11-21T15:30:34.697Z,6.28
2022-11-21T15:33:06.557Z,6.21
2022-11-21T15:35:50.479Z,6.27
2022-11-21T15:38:25.630Z,6.23
2022-11-21T15:41:07.163Z,6.17
2022-11-21T15:43:37.937Z,6.21
2022-11-21T15:46:14.726Z,6.32
2022-11-21T15:48:43.552Z,6.31
2022-11-21T15:51:12.628Z,6.23
2022-11-21T15:53:42.241Z,6.20
2022-11-21T15:56:21.351Z,6.16
2022-11-21T15:58:52.893Z,6.09
2022-11-21T16:01:23.975Z,6.15
2022-11-21T16:03:57.307Z,6.07
2022-11-21T16:06:27.546Z,5.96
2022-11-21T16:08:58.467Z,5.90
2022-11-21T16:11:29.377Z,5.84
2022-11-21T16:13:59.695Z,5.81
2022-11-21T16:16:34.057Z,5.81
2022-11-21T16:19:02.642Z,5.74
2022-11-21T16:21:32.590Z,5.66
2022-11-21T16:24:01.913Z,5.52
2022-11-21T16:26:30.683Z,5.41
2022-11-21T16:29:00.964Z,5.30
2022-11-21T16:31:31.728Z,5.25
2022-11-21T16:34:00.716Z,5.20
2022-11-21T16:36:31.522Z,5.12
2022-11-21T16:39:07.693Z,5.02
2022-11-21T16:41:41.714Z,4.97
2022-11-21T16:44:16.081Z,4.90
2022-11-21T16:46:47.994Z,4.94
2022-11-21T16:49:16.570Z,5.05
2022-11-21T16:51:48.041Z,4.95
2022-11-21T16:54:16.484Z,5.01
2022-11-21T16:56:49.009Z,5.05
2022-11-21T16:59:19.432Z,5.00
2022-11-21T17:01:48.672Z,5.20
2022-11-21T17:04:17.902Z,5.20
2022-11-21T17:06:51.411Z,5.08
2022-11-21T17:09:19.977Z,5.02
2022-11-21T17:11:50.391Z,4.99
2022-11-21T17:14:18.511Z,5.07
2022-11-21T17:16:49.419Z,5.12
2022-11-21T17:19:18.827Z,5.04
2022-11-21T17:21:47.580Z,4.98
2022-11-21T17:24:17.976Z,5.16
2022-11-21T17:26:51.657Z,5.17
2022-11-21T17:29:22.112Z,5.23
2022-11-21T17:31:51.074Z,5.93
2022-11-21T17:34:19.211Z,6.00
2022-11-21T17:36:47.429Z,6.05
2022-11-21T17:39:17.990Z,6.13
2022-11-21T17:41:47.178Z,6.37
2022-11-21T17:44:16.863Z,6.21
2022-11-21T17:46:48.118Z,6.19
2022-11-21T17:49:16.288Z,6.33
2022-11-21T17:51:46.104Z,6.13
2022-11-21T17:54:16.430Z,6.14
2022-11-21T17:56:52.632Z,6.34
2022-11-21T17:59:25.173Z,6.36
2022-11-21T18:02:01.145Z,6.21
2022-11-21T18:04:41.102Z,6.19
2022-11-21T18:07:13.811Z,6.13
2022-11-21T18:09:42.066Z,6.15
2022-11-21T18:12:10.515Z,6.21
2022-11-21T18:14:39.872Z,6.11
2022-11-21T18:17:09.916Z,6.36
2022-11-21T18:19:37.984Z,6.19
2022-11-21T18:22:07.572Z,6.15
2022-11-21T18:24:38.645Z,6.08
2022-11-21T18:27:09.316Z,6.05
2022-11-21T18:29:40.050Z,6.16
2022-11-21T18:32:10.295Z,6.07
2022-11-21T18:34:40.280Z,6.22
2022-11-21T18:37:12.075Z,6.27
2022-11-21T18:39:43.104Z,6.21
2022-11-21T18:42:12.985Z,6.24
2022-11-21T18:44:41.352Z,6.11
2022-11-21T18:47:20.411Z,5.98
2022-11-21T18:49:51.448Z,5.92
2022-11-21T18:52:23.032Z,5.86
2022-11-21T18:54:51.822Z,5.90
2022-11-21T18:57:20.455Z,5.85
2022-11-21T18:59:48.823Z,5.81
2022-11-21T19:02:18.564Z,5.77
2022-11-21T19:04:47.870Z,5.70
2022-11-21T19:07:17.109Z,5.64
2022-11-21T19:09:46.886Z,5.56
2022-11-21T19:12:19.770Z,5.51
2022-11-21T19:14:51.986Z,5.47
2022-11-21T19:17:26.630Z,5.45
2022-11-21T19:19:54.804Z,5.47
2022-11-21T19:22:23.302Z,5.46
2022-11-21T19:24:54.946Z,5.50
2022-11-21T19:27:25.086Z,5.72
2022-11-21T19:29:56.522Z,6.11
2022-11-21T19:32:26.092Z,6.07
2022-11-21T19:34:54.496Z,6.27
2022-11-21T19:37:22.827Z,6.27
2022-11-21T19:39:51.333Z,6.23
2022-11-21T19:42:19.933Z,6.27
2022-11-21T19:44:48.538Z,6.23
2022-11-21T19:47:21.240Z,6.16
2022-11-21T19:49:53.870Z,6.17
2022-11-21T19:52:27.559Z,6.20
2022-11-21T19:54:56.219Z,6.19
2022-11-21T19:57:26.685Z,6.19
2022-11-21T19:59:57.221Z,6.28
2022-11-21T20:02:35.113Z,6.36
2022-11-21T20:05:04.937Z,6.44
2022-11-21T20:07:34.690Z,6.51
2022-11-21T20:10:02.800Z,6.45
2022-11-21T20:12:36.983Z,6.43
2022-11-21T20:15:05.971Z,6.53
2022-11-21T20:17:35.562Z,6.55
2022-11-21T20:20:06.325Z,6.52
2022-11-21T20:22:37.158Z,6.61
2022-11-21T20:25:08.671Z,6.64
2022-11-21T20:27:37.083Z,6.63
2022-11-21T20:30:07.663Z,6.65
2022-11-21T20:32:36.449Z,6.67
2022-11-21T20:35:08.129Z,6.66
2022-11-21T20:37:37.477Z,6.60
2022-11-21T20:40:06.431Z,6.57
2022-11-21T20:42:37.230Z,6.70
2022-11-21T20:46:06.346Z,6.57
2022-11-21T20:47:57.113Z,6.56
2022-11-21T20:51:14.764Z,6.60
2022-11-21T20:56:06.341Z,6.57
2022-11-21T20:58:38.048Z,6.57
2022-11-21T21:01:08.046Z,6.48
2022-11-21T21:03:37.929Z,6.43
2022-11-21T21:06:13.369Z,6.40
2022-11-21T21:08:41.645Z,6.38
2022-11-21T21:11:36.883Z,6.36
2022-11-21T21:14:03.621Z,6.28
2022-11-21T21:16:34.497Z,6.21
2022-11-21T21:19:05.368Z,6.20
2022-11-21T21:21:36.626Z,6.12
2022-11-21T21:24:07.297Z,6.07
2022-11-21T21:26:42.495Z,6.11
2022-11-21T21:29:14.982Z,6.01
2022-11-21T21:31:49.907Z,5.97
2022-11-21T21:34:19.680Z,5.95
2022-11-21T21:36:50.373Z,5.94
2022-11-21T21:39:22.322Z,5.94
2022-11-21T21:41:50.716Z,5.93
2022-11-21T21:44:20.472Z,5.92
2022-11-21T21:46:52.084Z,5.92
2022-11-21T21:49:20.829Z,5.89
2022-11-21T21:51:50.479Z,5.88
2022-11-21T21:54:23.715Z,5.88
2022-11-21T21:56:53.657Z,5.86
2022-11-21T21:59:21.976Z,5.80
2022-11-21T22:01:50.553Z,5.82
2022-11-21T22:04:20.058Z,5.76
2022-11-21T22:06:49.910Z,5.74
2022-11-21T22:09:18.349Z,5.67
2022-11-21T22:11:48.284Z,5.63
2022-11-21T22:14:18.195Z,5.60
2022-11-21T22:16:47.761Z,5.62
2022-11-21T22:19:17.441Z,5.56
2022-11-21T22:21:45.848Z,5.54
2022-11-21T22:24:25.309Z,5.55
2022-11-21T22:26:54.406Z,5.59
2022-11-21T22:29:22.788Z,5.58
2022-11-21T22:31:55.454Z,5.55
2022-11-21T22:34:27.999Z,5.56
2022-11-21T22:36:57.127Z,5.65
2022-11-21T22:39:27.344Z,5.59
2022-11-21T22:42:00.060Z,5.63
2022-11-21T22:44:28.827Z,5.57
2022-11-21T22:46:57.133Z,5.73
2022-11-21T22:49:25.558Z,5.63
2022-11-21T22:51:54.573Z,5.58
2022-11-21T22:54:23.320Z,5.56
2022-11-21T22:56:53.206Z,5.53
2022-11-21T22:59:24.092Z,5.53
2022-11-21T23:01:52.577Z,5.51
2022-11-21T23:04:21.898Z,5.49
2022-11-21T23:06:50.277Z,5.45
2022-11-21T23:09:19.292Z,5.39
2022-11-21T23:11:47.599Z,5.41
2022-11-21T23:14:17.961Z,5.40
2022-11-21T23:16:46.117Z,5.41
2022-11-21T23:19:15.464Z,5.45
2022-11-21T23:21:43.759Z,5.39
2022-11-21T23:24:13.413Z,5.41
2022-11-21T23:26:43.032Z,5.43
2022-11-21T23:29:11.641Z,5.39
2022-11-21T23:31:42.739Z,5.38
2022-11-21T23:34:13.914Z,5.37
2022-11-21T23:36:42.175Z,5.39
2022-11-21T23:39:11.101Z,5.41
2022-11-21T23:41:39.607Z,5.44
2022-11-21T23:44:08.708Z,5.47
2022-11-21T23:46:36.792Z,5.49
2022-11-21T23:49:07.443Z,5.52
2022-11-21T23:51:35.872Z,5.54
2022-11-21T23:54:04.310Z,5.57
2022-11-21T23:56:32.461Z,5.62
2022-11-21T23:59:01.043Z,5.62
